sensor_id;sensor_type;location;lat;lon;timestamp;P1;durP1;ratioP1;P2;durP2;ratioP2
30466;SDS011;17258;52.560;13.046;2023-03-01T00:02:01;6.60;;;6.00;;
30466;SDS011;17258;52.560;13.046;2023-03-01T00:12:02;8.10;;;7.30;;
30466;SDS011;17258;52.560;13.046;2023-03-01T00:22:03;6.95;;;6.25;;
30466;SDS011;17258;52.560;13.046;2023-03-01T00:32:04;10.20;;;7.00;;
30466;SDS011;17258;52.560;13.046;2023-03-01T00:42:05;7.05;;;6.35;;
30466;SDS011;17258;52.560;13.046;2023-03-01T00:52:05;7.53;;;6.57;;
30466;SDS011;17258;52.560;13.046;2023-03-01T01:02:06;7.57;;;5.83;;
30466;SDS011;17258;52.560;13.046;2023-03-01T01:12:07;6.60;;;6.00;;
30466;SDS011;17258;52.560;13.046;2023-03-01T01:22:08;7.00;;;5.95;;
30466;SDS011;17258;52.560;13.046;2023-03-01T01:32:08;5.97;;;5.47;;
30466;SDS011;17258;52.560;13.046;2023-03-01T01:42:12;11.13;;;6.57;;
30466;SDS011;17258;52.560;13.046;2023-03-01T01:52:18;8.82;;;6.40;;
30466;SDS011;17258;52.560;13.046;2023-03-01T02:02:23;7.40;;;6.37;;
30466;SDS011;17258;52.560;13.046;2023-03-01T02:12:24;8.05;;;6.35;;
30466;SDS011;17258;52.560;13.046;2023-03-01T02:22:30;8.68;;;6.53;;
30466;SDS011;17258;52.560;13.046;2023-03-01T02:32:32;9.93;;;7.67;;
30466;SDS011;17258;52.560;13.046;2023-03-01T02:42:35;12.02;;;9.30;;
30466;SDS011;17258;52.560;13.046;2023-03-01T02:52:45;12.07;;;9.23;;
30466;SDS011;17258;52.560;13.046;2023-03-01T03:03:02;22.35;;;10.65;;
30466;SDS011;17258;52.560;13.046;2023-03-01T03:13:04;24.90;;;14.98;;
30466;SDS011;17258;52.560;13.046;2023-03-01T03:23:08;19.08;;;10.73;;
30466;SDS011;17258;52.560;13.046;2023-03-01T03:33:09;14.45;;;9.35;;
30466;SDS011;17258;52.560;13.046;2023-03-01T03:43:15;12.25;;;8.93;;
30466;SDS011;17258;52.560;13.046;2023-03-01T03:53:21;13.52;;;9.13;;
30466;SDS011;17258;52.560;13.046;2023-03-01T04:03:25;22.88;;;10.70;;
30466;SDS011;17258;52.560;13.046;2023-03-01T04:13:26;13.20;;;10.07;;
30466;SDS011;17258;52.560;13.046;2023-03-01T04:23:27;20.80;;;10.75;;
30466;SDS011;17258;52.560;13.046;2023-03-01T04:33:28;14.50;;;10.47;;
30466;SDS011;17258;52.560;13.046;2023-03-01T04:43:28;12.97;;;10.20;;
30466;SDS011;17258;52.560;13.046;2023-03-01T04:53:29;13.38;;;9.65;;
30466;SDS011;17258;52.560;13.046;2023-03-01T05:03:30;9.25;;;8.20;;
30466;SDS011;17258;52.560;13.046;2023-03-01T05:13:31;7.83;;;7.13;;
30466;SDS011;17258;52.560;13.046;2023-03-01T05:23:32;9.05;;;6.90;;
30466;SDS011;17258;52.560;13.046;2023-03-01T05:33:33;8.32;;;6.47;;
30466;SDS011;17258;52.560;13.046;2023-03-01T05:43:34;6.83;;;6.20;;
30466;SDS011;17258;52.560;13.046;2023-03-01T05:53:34;6.63;;;5.93;;
30466;SDS011;17258;52.560;13.046;2023-03-01T06:03:35;9.30;;;7.22;;
30466;SDS011;17258;52.560;13.046;2023-03-01T06:13:35;14.07;;;8.37;;
30466;SDS011;17258;52.560;13.046;2023-03-01T06:23:36;7.90;;;6.77;;
30466;SDS011;17258;52.560;13.046;2023-03-01T06:33:37;10.80;;;8.97;;
30466;SDS011;17258;52.560;13.046;2023-03-01T06:43:37;8.35;;;7.47;;
30466;SDS011;17258;52.560;13.046;2023-03-01T06:53:38;7.33;;;6.60;;
30466;SDS011;17258;52.560;13.046;2023-03-01T07:03:39;12.93;;;8.87;;
30466;SDS011;17258;52.560;13.046;2023-03-01T07:13:39;10.07;;;7.93;;
30466;SDS011;17258;52.560;13.046;2023-03-01T07:23:41;11.65;;;8.57;;
30466;SDS011;17258;52.560;13.046;2023-03-01T07:33:42;9.63;;;7.72;;
30466;SDS011;17258;52.560;13.046;2023-03-01T07:43:43;9.23;;;7.50;;
30466;SDS011;17258;52.560;13.046;2023-03-01T07:53:45;9.40;;;6.93;;
30466;SDS011;17258;52.560;13.046;2023-03-01T08:03:47;9.32;;;7.63;;
30466;SDS011;17258;52.560;13.046;2023-03-01T08:13:48;9.30;;;6.68;;
30466;SDS011;17258;52.560;13.046;2023-03-01T08:23:48;6.93;;;5.80;;
30466;SDS011;17258;52.560;13.046;2023-03-01T08:33:50;6.10;;;5.50;;
30466;SDS011;17258;52.560;13.046;2023-03-01T08:43:56;5.90;;;5.33;;
30466;SDS011;17258;52.560;13.046;2023-03-01T08:54:00;5.65;;;5.15;;
30466;SDS011;17258;52.560;13.046;2023-03-01T09:04:00;5.67;;;5.17;;
30466;SDS011;17258;52.560;13.046;2023-03-01T09:14:01;7.47;;;4.53;;
30466;SDS011;17258;52.560;13.046;2023-03-01T09:24:05;5.75;;;4.50;;
30466;SDS011;17258;52.560;13.046;2023-03-01T09:34:12;4.30;;;3.90;;
30466;SDS011;17258;52.560;13.046;2023-03-01T09:44:27;10.80;;;3.95;;
30466;SDS011;17258;52.560;13.046;2023-03-01T09:54:45;6.38;;;3.78;;
30466;SDS011;17258;52.560;13.046;2023-03-01T10:04:48;4.10;;;2.72;;
30466;SDS011;17258;52.560;13.046;2023-03-01T10:25:23;2.95;;;2.75;;
30466;SDS011;17258;52.560;13.046;2023-03-01T10:35:52;3.88;;;3.15;;
30466;SDS011;17258;52.560;13.046;2023-03-01T10:45:53;2.08;;;1.98;;
30466;SDS011;17258;52.560;13.046;2023-03-01T10:56:05;2.33;;;2.13;;
30466;SDS011;17258;52.560;13.046;2023-03-01T11:16:11;1.55;;;1.45;;
30466;SDS011;17258;52.560;13.046;2023-03-01T11:26:12;1.90;;;1.58;;
30466;SDS011;17258;52.560;13.046;2023-03-01T12:28:00;1.95;;;1.85;;
30466;SDS011;17258;52.560;13.046;2023-03-01T12:38:32;1.25;;;1.15;;
30466;SDS011;17258;52.560;13.046;2023-03-01T12:49:10;1.60;;;1.45;;
30466;SDS011;17258;52.560;13.046;2023-03-01T12:59:24;1.80;;;1.48;;
30466;SDS011;17258;52.560;13.046;2023-03-01T13:10:29;1.90;;;1.30;;
30466;SDS011;17258;52.560;13.046;2023-03-01T13:20:30;1.27;;;1.17;;
30466;SDS011;17258;52.560;13.046;2023-03-01T13:30:43;1.30;;;1.20;;
30466;SDS011;17258;52.560;13.046;2023-03-01T13:50:48;2.90;;;1.42;;
30466;SDS011;17258;52.560;13.046;2023-03-01T14:00:55;1.58;;;1.15;;
30466;SDS011;17258;52.560;13.046;2023-03-01T14:21:20;0.98;;;0.90;;
30466;SDS011;17258;52.560;13.046;2023-03-01T14:31:40;0.90;;;0.90;;
30466;SDS011;17258;52.560;13.046;2023-03-01T14:41:42;1.20;;;1.10;;
30466;SDS011;17258;52.560;13.046;2023-03-01T14:51:46;1.00;;;1.00;;
30466;SDS011;17258;52.560;13.046;2023-03-01T15:01:57;1.33;;;1.23;;
30466;SDS011;17258;52.560;13.046;2023-03-01T15:11:58;3.15;;;1.40;;
30466;SDS011;17258;52.560;13.046;2023-03-01T15:21:59;1.50;;;1.07;;
30466;SDS011;17258;52.560;13.046;2023-03-01T15:32:24;1.52;;;0.90;;
30466;SDS011;17258;52.560;13.046;2023-03-01T15:52:34;1.10;;;1.10;;
30466;SDS011;17258;52.560;13.046;2023-03-01T16:02:40;1.47;;;1.37;;
30466;SDS011;17258;52.560;13.046;2023-03-01T16:12:42;5.65;;;1.10;;
30466;SDS011;17258;52.560;13.046;2023-03-01T16:22:44;1.00;;;1.00;;
30466;SDS011;17258;52.560;13.046;2023-03-01T16:32:46;1.35;;;1.33;;
30466;SDS011;17258;52.560;13.046;2023-03-01T16:42:48;1.30;;;1.20;;
30466;SDS011;17258;52.560;13.046;2023-03-01T16:52:49;1.50;;;1.33;;
30466;SDS011;17258;52.560;13.046;2023-03-01T17:02:50;1.40;;;1.30;;
30466;SDS011;17258;52.560;13.046;2023-03-01T17:12:52;2.22;;;1.60;;
30466;SDS011;17258;52.560;13.046;2023-03-01T17:22:53;2.08;;;1.88;;
30466;SDS011;17258;52.560;13.046;2023-03-01T17:32:54;3.43;;;1.70;;
30466;SDS011;17258;52.560;13.046;2023-03-01T17:42:55;3.50;;;2.67;;
30466;SDS011;17258;52.560;13.046;2023-03-01T17:52:56;2.88;;;2.67;;
30466;SDS011;17258;52.560;13.046;2023-03-01T18:02:57;2.05;;;1.95;;
30466;SDS011;17258;52.560;13.046;2023-03-01T18:12:58;2.97;;;2.63;;
30466;SDS011;17258;52.560;13.046;2023-03-01T18:22:58;5.00;;;2.23;;
30466;SDS011;17258;52.560;13.046;2023-03-01T18:32:59;2.53;;;2.07;;
30466;SDS011;17258;52.560;13.046;2023-03-01T18:43:00;3.23;;;2.93;;
30466;SDS011;17258;52.560;13.046;2023-03-01T18:53:00;6.40;;;4.83;;
30466;SDS011;17258;52.560;13.046;2023-03-01T19:03:01;7.57;;;5.53;;
30466;SDS011;17258;52.560;13.046;2023-03-01T19:13:02;5.57;;;5.05;;
30466;SDS011;17258;52.560;13.046;2023-03-01T19:23:03;5.32;;;4.80;;
30466;SDS011;17258;52.560;13.046;2023-03-01T19:33:04;8.90;;;6.27;;
30466;SDS011;17258;52.560;13.046;2023-03-01T19:43:04;6.40;;;5.05;;
30466;SDS011;17258;52.560;13.046;2023-03-01T19:53:05;8.20;;;5.57;;
30466;SDS011;17258;52.560;13.046;2023-03-01T20:03:06;5.32;;;4.10;;
30466;SDS011;17258;52.560;13.046;2023-03-01T20:13:06;6.22;;;5.70;;
30466;SDS011;17258;52.560;13.046;2023-03-01T20:23:07;7.83;;;7.07;;
30466;SDS011;17258;52.560;13.046;2023-03-01T20:33:08;8.32;;;7.20;;
30466;SDS011;17258;52.560;13.046;2023-03-01T20:43:09;6.85;;;6.15;;
30466;SDS011;17258;52.560;13.046;2023-03-01T20:53:09;10.73;;;6.87;;
30466;SDS011;17258;52.560;13.046;2023-03-01T21:03:10;6.73;;;5.53;;
30466;SDS011;17258;52.560;13.046;2023-03-01T21:13:10;7.23;;;5.70;;
30466;SDS011;17258;52.560;13.046;2023-03-01T21:23:11;10.43;;;5.93;;
30466;SDS011;17258;52.560;13.046;2023-03-01T21:33:12;7.75;;;6.75;;
30466;SDS011;17258;52.560;13.046;2023-03-01T21:43:12;7.63;;;6.83;;
30466;SDS011;17258;52.560;13.046;2023-03-01T21:53:13;6.47;;;5.17;;
30466;SDS011;17258;52.560;13.046;2023-03-01T22:03:14;5.87;;;5.23;;
30466;SDS011;17258;52.560;13.046;2023-03-01T22:13:15;10.48;;;7.15;;
30466;SDS011;17258;52.560;13.046;2023-03-01T22:23:16;10.20;;;6.43;;
30466;SDS011;17258;52.560;13.046;2023-03-01T22:33:17;7.37;;;6.60;;
30466;SDS011;17258;52.560;13.046;2023-03-01T22:43:17;7.27;;;6.57;;
30466;SDS011;17258;52.560;13.046;2023-03-01T22:53:18;7.70;;;7.00;;
30466;SDS011;17258;52.560;13.046;2023-03-01T23:03:19;7.73;;;6.73;;
30466;SDS011;17258;52.560;13.046;2023-03-01T23:13:19;11.47;;;7.03;;
30466;SDS011;17258;52.560;13.046;2023-03-01T23:23:20;6.23;;;5.27;;
30466;SDS011;17258;52.560;13.046;2023-03-01T23:33:20;7.70;;;6.17;;
30466;SDS011;17258;52.560;13.046;2023-03-01T23:43:21;6.63;;;5.93;;
30466;SDS011;17258;52.560;13.046;2023-03-01T23:53:22;8.50;;;6.77;;
